AirNav   Duncan Aviation - Near you to keep you 
flying
 
 423 users online  

95WA Black Diamond Airport
Black Diamond, Washington, USA

GOING TO BLACK DIAMOND?


FAA INFORMATION EFFECTIVE 15 JULY 2021

Location

FAA Identifier: 95WA
Lat/Long: 47-18-56.3630N 122-00-35.4090W
47-18.939383N 122-00.590150W
47.3156564,-122.0098358
(estimated)
Elevation: 595 ft. / 181 m (estimated)
Variation: 20E (1985)
Time zone: UTC -7 (UTC -8 during Standard Time)
Zip code: 98010

Airport Operations

Airport use: Private use. Permission required prior to landing
Activation date: 03/1980
Control tower: no
ARTCC: SEATTLE CENTER
FSS: SEATTLE FLIGHT SERVICE STATION
Attendance: UNATNDD
Wind indicator: yes
Segmented circle: no

Airport Communications

WX ASOS at RNT (14 nm NW): 126.95 (425-255-6080)
WX ASOS at SEA (15 nm NW): PHONE 206-214-2592
WX AWOS-3 at PLU (17 nm SW): 128.575 (253-848-2748)
WX ASOS at BFI (17 nm NW): PHONE 206-658-6435

Nearby radio navigation aids

VOR radial/distance  VOR name  Freq  Var
SEAr102/14.1SEATTLE VORTAC116.8019E
PAEr143/37.8PAINE VOR/DME110.6020E

Airport Services

Runway Information

Runway 18/36

Dimensions: 2100 x 40 ft. / 640 x 12 m
Surface: asphalt
RUNWAY 18  RUNWAY 36
Traffic pattern: leftleft
Obstructions: 60 ft. pole, 200 ft. from runwaynone

Airport Ownership and Management from official FAA records

Ownership: Privately-owned
Owner: DARRELL R. BRYANT
25022 ROBERTS DRIVE
BLACK DIAMOND, WA 98010
Phone 425-255-3478
Manager: DARRELL R. BRYANT
25022 ROBERTS DRIVE
BLACK DIAMOND, WA 98010
Phone 425-255-3478

Airport Operational Statistics

Aircraft based on the field: 2
Single engine airplanes: 2
    

Additional Remarks

FOR CD CTC SEATTLE APCH AT 206-214-4794.

Instrument Procedures

There are no published instrument procedures at 95WA.

Some nearby airports with instrument procedures:

S50 - Auburn Municipal Airport (9 nm W)
KRNT - Renton Municipal Airport (14 nm NW)
KSEA - Seattle-Tacoma International Airport (15 nm NW)
KPLU - Pierce County Airport - Thun Field (17 nm SW)
KBFI - Boeing Field/King County International Airport (17 nm NW)
 
Loc | Ops | Rwys | IFR | FBO | Links
Com | Nav | Svcs | Stats | Notes
Area around 95WA (Black Diamond Airport)
 
Road maps at: MapQuest Bing Google
 
Aerial photo
WARNING: Photo may not be current or correct
Aerial photo of 95WA (Black Diamond Airport)
Photo taken 15-Jun-2020

Do you have a better or more recent aerial photo of Black Diamond Airport that you would like to share? If so, please send us your photo.

 
Sectional chart

 
Airport distance calculator
Flying to Black Diamond Airport? Find the distance to fly.

From to 95WA

Sunrise and sunset
Times for 01-Aug-2021
 Local
(UTC-7)
 Zulu
(UTC)
Morning civil twilight05:1212:12
Sunrise05:4812:48
Sunset20:4103:41
Evening civil twilight21:1704:17

Current date and time
Zulu (UTC)  01-Aug-2021 09:32:26
Local (UTC-7)  01-Aug-2021 02:32:26
 
METAR
KRNT 
14nm NW 
010853Z AUTO 18004KT 6SM HZ CLR 20/13 A3004 RMK AO2 SLP177 T02000133 53008
KSEA 
15nm NW 
010853Z 00000KT 10SM OVC140 19/13 A3005 RMK AO2 SLP182 T01890133 53009
KPLU 
17nm SW 
010915Z AUTO 00000KT 10SM FEW055 SCT065 SCT080 19/16 A3005 RMK AO2
KBFI 
19nm NW 
010853Z AUTO 00000KT 10SM CLR 19/13 A3004 RMK AO2 SLP173 T01940133 51012
KTCM 
22nm SW 
010858Z AUTO 00000KT 10SM BKN140 19/15 A3004 RMK AO2 SLP175 T01930145 50005 $
KTIW 
24nm W 
010853Z AUTO 34003KT 10SM CLR 18/15 A3005 RMK AO2 SLP173 T01780150 50007 $
KGRF 
27nm SW 
010858Z AUTO 27003KT 10SM OVC140 20/15 A3004 RMK AO2 SLP175 T02000150 52008 $
KSMP 
28nm E 
010856Z AUTO 00000KT 5SM -RA OVC095 18/14 A3021 RMK AO2 RAB39 SLP196 P0002 60002 T01780139 53013
TAF
KSEA 
15nm NW 
010520Z 0106/0212 20005KT P6SM BKN090 OVC150 FM012000 30007KT P6SM BKN150
KBFI 
19nm NW 
010520Z 0106/0206 00000KT P6SM BKN110 OVC150 FM012000 30007KT P6SM BKN150
NOTAMs
Click for the latest NOTAMs
NOTAMs are issued by the DoD/FAA and will open in a separate window not controlled by AirNav.

 

 
 

Would you like to see your business listed on this page?

 If your business provides an interesting product or service to pilots, flight crews, aircraft, or users of the Black Diamond Airport, you should consider listing it here.  To start the listing process, click on the button below
 
Add a business
 

Other Pages about Black Diamond Airport

Update a link
 
Copyright © AirNav, LLC. All rights reserved. Privacy Policy  Contact